sensor_id;sensor_type;location;lat;lon;timestamp;temperature;humidity
47414;DHT22;33163;0.000;0.000;2022-09-25T00:00:39;19.80;73.90
47414;DHT22;33163;0.000;0.000;2022-09-25T00:03:08;19.80;73.90
47414;DHT22;33163;0.000;0.000;2022-09-25T00:05:34;19.80;73.90
47414;DHT22;33163;0.000;0.000;2022-09-25T00:08:01;19.80;73.70
47414;DHT22;33163;0.000;0.000;2022-09-25T00:10:28;19.80;73.80
47414;DHT22;33163;0.000;0.000;2022-09-25T00:12:55;19.80;73.80
47414;DHT22;33163;0.000;0.000;2022-09-25T00:15:21;19.80;74.40
47414;DHT22;33163;0.000;0.000;2022-09-25T00:17:48;19.80;73.70
47414;DHT22;33163;0.000;0.000;2022-09-25T00:20:16;19.70;74.30
47414;DHT22;33163;0.000;0.000;2022-09-25T00:22:42;19.70;73.60
47414;DHT22;33163;0.000;0.000;2022-09-25T00:25:09;19.70;73.60
47414;DHT22;33163;0.000;0.000;2022-09-25T00:27:37;19.70;73.50
47414;DHT22;33163;0.000;0.000;2022-09-25T00:30:05;19.70;73.60
47414;DHT22;33163;0.000;0.000;2022-09-25T00:32:31;19.70;73.50
47414;DHT22;33163;0.000;0.000;2022-09-25T00:34:58;19.70;73.50
47414;DHT22;33163;0.000;0.000;2022-09-25T00:37:26;19.70;73.50
47414;DHT22;33163;0.000;0.000;2022-09-25T00:39:53;19.70;73.50
47414;DHT22;33163;0.000;0.000;2022-09-25T00:42:21;19.70;73.40
47414;DHT22;33163;0.000;0.000;2022-09-25T00:44:52;19.70;73.50
47414;DHT22;33163;0.000;0.000;2022-09-25T00:47:23;19.70;73.40
47414;DHT22;33163;0.000;0.000;2022-09-25T00:49:50;19.70;73.40
47414;DHT22;33163;0.000;0.000;2022-09-25T00:52:18;19.70;73.40
47414;DHT22;33163;0.000;0.000;2022-09-25T00:54:46;19.70;73.30
47414;DHT22;33163;0.000;0.000;2022-09-25T00:57:14;19.70;73.30
47414;DHT22;33163;0.000;0.000;2022-09-25T00:59:43;19.70;73.30
47414;DHT22;33163;0.000;0.000;2022-09-25T01:02:13;19.70;73.30
47414;DHT22;33163;0.000;0.000;2022-09-25T01:04:42;19.70;73.20
47414;DHT22;33163;0.000;0.000;2022-09-25T01:07:11;19.70;73.10
47414;DHT22;33163;0.000;0.000;2022-09-25T01:09:39;19.60;73.10
47414;DHT22;33163;0.000;0.000;2022-09-25T01:12:07;19.60;73.10
47414;DHT22;33163;0.000;0.000;2022-09-25T01:14:34;19.60;73.10
47414;DHT22;33163;0.000;0.000;2022-09-25T01:17:01;19.60;73.00
47414;DHT22;33163;0.000;0.000;2022-09-25T01:19:33;19.60;73.10
47414;DHT22;33163;0.000;0.000;2022-09-25T01:22:09;19.60;73.00
47414;DHT22;33163;0.000;0.000;2022-09-25T01:24:47;19.60;73.00
47414;DHT22;33163;0.000;0.000;2022-09-25T01:27:28;19.60;73.00
47414;DHT22;33163;0.000;0.000;2022-09-25T01:29:57;19.60;73.00
47414;DHT22;33163;0.000;0.000;2022-09-25T01:32:27;19.60;73.00
47414;DHT22;33163;0.000;0.000;2022-09-25T01:34:56;19.60;73.00
47414;DHT22;33163;0.000;0.000;2022-09-25T01:37:25;19.60;73.00
47414;DHT22;33163;0.000;0.000;2022-09-25T01:39:53;19.60;73.10
47414;DHT22;33163;0.000;0.000;2022-09-25T01:42:22;19.60;73.10
47414;DHT22;33163;0.000;0.000;2022-09-25T01:44:51;19.60;73.10
47414;DHT22;33163;0.000;0.000;2022-09-25T01:47:23;19.60;73.10
47414;DHT22;33163;0.000;0.000;2022-09-25T01:49:53;19.60;73.20
47414;DHT22;33163;0.000;0.000;2022-09-25T01:52:22;19.60;73.10
47414;DHT22;33163;0.000;0.000;2022-09-25T01:54:50;19.60;73.10
47414;DHT22;33163;0.000;0.000;2022-09-25T01:57:20;19.60;73.10
47414;DHT22;33163;0.000;0.000;2022-09-25T01:59:48;19.60;73.10
47414;DHT22;33163;0.000;0.000;2022-09-25T02:02:19;19.60;73.20
47414;DHT22;33163;0.000;0.000;2022-09-25T02:05:08;19.60;73.10
47414;DHT22;33163;0.000;0.000;2022-09-25T02:07:36;19.60;73.10
47414;DHT22;33163;0.000;0.000;2022-09-25T02:10:06;19.50;73.10
47414;DHT22;33163;0.000;0.000;2022-09-25T02:12:36;19.50;73.70
47414;DHT22;33163;0.000;0.000;2022-09-25T02:15:07;19.50;73.10
47414;DHT22;33163;0.000;0.000;2022-09-25T02:17:37;19.50;73.10
47414;DHT22;33163;0.000;0.000;2022-09-25T02:20:24;19.60;73.10
47414;DHT22;33163;0.000;0.000;2022-09-25T02:23:05;19.50;73.00
47414;DHT22;33163;0.000;0.000;2022-09-25T02:25:35;19.50;73.00
47414;DHT22;33163;0.000;0.000;2022-09-25T02:28:02;19.50;73.10
47414;DHT22;33163;0.000;0.000;2022-09-25T02:30:29;19.50;73.00
47414;DHT22;33163;0.000;0.000;2022-09-25T02:32:56;19.50;73.00
47414;DHT22;33163;0.000;0.000;2022-09-25T02:35:22;19.50;73.00
47414;DHT22;33163;0.000;0.000;2022-09-25T02:37:50;19.50;73.10
47414;DHT22;33163;0.000;0.000;2022-09-25T02:40:17;19.50;73.00
47414;DHT22;33163;0.000;0.000;2022-09-25T02:42:46;19.50;73.10
47414;DHT22;33163;0.000;0.000;2022-09-25T02:45:18;19.50;73.10
47414;DHT22;33163;0.000;0.000;2022-09-25T02:47:51;19.50;73.10
47414;DHT22;33163;0.000;0.000;2022-09-25T02:50:20;19.50;73.10
47414;DHT22;33163;0.000;0.000;2022-09-25T02:52:51;19.50;73.10
47414;DHT22;33163;0.000;0.000;2022-09-25T02:55:21;19.50;73.10
47414;DHT22;33163;0.000;0.000;2022-09-25T02:57:50;19.50;73.10
47414;DHT22;33163;0.000;0.000;2022-09-25T03:00:18;19.50;73.10
47414;DHT22;33163;0.000;0.000;2022-09-25T03:02:47;19.50;73.10
47414;DHT22;33163;0.000;0.000;2022-09-25T03:05:13;19.50;73.10
47414;DHT22;33163;0.000;0.000;2022-09-25T03:07:41;19.50;73.10
47414;DHT22;33163;0.000;0.000;2022-09-25T03:10:26;19.50;73.10
47414;DHT22;33163;0.000;0.000;2022-09-25T03:12:55;19.50;73.10
47414;DHT22;33163;0.000;0.000;2022-09-25T03:15:22;19.50;73.10
47414;DHT22;33163;0.000;0.000;2022-09-25T03:17:49;19.50;73.20
47414;DHT22;33163;0.000;0.000;2022-09-25T03:20:16;19.50;73.20
47414;DHT22;33163;0.000;0.000;2022-09-25T03:22:43;19.50;73.20
47414;DHT22;33163;0.000;0.000;2022-09-25T03:25:10;19.50;73.20
47414;DHT22;33163;0.000;0.000;2022-09-25T03:27:37;19.50;73.20
47414;DHT22;33163;0.000;0.000;2022-09-25T03:30:07;19.50;73.30
47414;DHT22;33163;0.000;0.000;2022-09-25T03:32:34;19.50;73.30
47414;DHT22;33163;0.000;0.000;2022-09-25T03:35:00;19.50;73.30
47414;DHT22;33163;0.000;0.000;2022-09-25T03:37:27;19.50;73.20
47414;DHT22;33163;0.000;0.000;2022-09-25T03:39:55;19.50;73.20
47414;DHT22;33163;0.000;0.000;2022-09-25T03:42:21;19.50;73.30
47414;DHT22;33163;0.000;0.000;2022-09-25T03:44:53;19.50;73.20
47414;DHT22;33163;0.000;0.000;2022-09-25T03:47:19;19.50;73.20
47414;DHT22;33163;0.000;0.000;2022-09-25T03:49:46;19.50;73.30
47414;DHT22;33163;0.000;0.000;2022-09-25T03:52:12;19.50;73.30
47414;DHT22;33163;0.000;0.000;2022-09-25T03:54:39;19.50;73.30
47414;DHT22;33163;0.000;0.000;2022-09-25T03:57:06;19.50;73.40
47414;DHT22;33163;0.000;0.000;2022-09-25T03:59:32;19.50;73.30
47414;DHT22;33163;0.000;0.000;2022-09-25T04:02:00;19.50;73.30
47414;DHT22;33163;0.000;0.000;2022-09-25T04:04:27;19.50;73.40
47414;DHT22;33163;0.000;0.000;2022-09-25T04:06:54;19.40;73.30
47414;DHT22;33163;0.000;0.000;2022-09-25T04:09:21;19.40;73.30
47414;DHT22;33163;0.000;0.000;2022-09-25T04:11:47;19.40;73.30
47414;DHT22;33163;0.000;0.000;2022-09-25T04:14:14;19.40;73.20
47414;DHT22;33163;0.000;0.000;2022-09-25T04:16:40;19.40;73.30
47414;DHT22;33163;0.000;0.000;2022-09-25T04:19:08;19.40;73.40
47414;DHT22;33163;0.000;0.000;2022-09-25T04:21:35;19.40;73.40
47414;DHT22;33163;0.000;0.000;2022-09-25T04:24:02;19.40;73.40
47414;DHT22;33163;0.000;0.000;2022-09-25T04:26:46;19.40;73.40
47414;DHT22;33163;0.000;0.000;2022-09-25T04:29:17;19.40;73.30
47414;DHT22;33163;0.000;0.000;2022-09-25T04:31:43;19.40;73.40
47414;DHT22;33163;0.000;0.000;2022-09-25T04:34:32;19.40;73.30
47414;DHT22;33163;0.000;0.000;2022-09-25T04:36:59;19.40;73.30
47414;DHT22;33163;0.000;0.000;2022-09-25T04:39:26;19.40;73.40
47414;DHT22;33163;0.000;0.000;2022-09-25T04:41:52;19.40;73.30
47414;DHT22;33163;0.000;0.000;2022-09-25T04:44:19;19.40;73.30
47414;DHT22;33163;0.000;0.000;2022-09-25T04:46:46;19.40;73.30
47414;DHT22;33163;0.000;0.000;2022-09-25T04:49:13;19.40;73.30
47414;DHT22;33163;0.000;0.000;2022-09-25T04:51:41;19.40;73.20
47414;DHT22;33163;0.000;0.000;2022-09-25T04:54:07;19.40;73.40
47414;DHT22;33163;0.000;0.000;2022-09-25T04:56:34;19.40;73.90
47414;DHT22;33163;0.000;0.000;2022-09-25T04:59:00;19.40;73.20
47414;DHT22;33163;0.000;0.000;2022-09-25T05:01:27;19.40;73.30
47414;DHT22;33163;0.000;0.000;2022-09-25T05:03:54;19.40;73.20
47414;DHT22;33163;0.000;0.000;2022-09-25T05:06:20;19.40;73.20
47414;DHT22;33163;0.000;0.000;2022-09-25T05:08:48;19.40;73.30
47414;DHT22;33163;0.000;0.000;2022-09-25T05:11:15;19.40;73.20
47414;DHT22;33163;0.000;0.000;2022-09-25T05:13:42;19.40;73.20
47414;DHT22;33163;0.000;0.000;2022-09-25T05:16:10;19.30;73.20
47414;DHT22;33163;0.000;0.000;2022-09-25T05:18:37;19.30;73.20
47414;DHT22;33163;0.000;0.000;2022-09-25T05:21:04;19.30;73.10
47414;DHT22;33163;0.000;0.000;2022-09-25T05:23:31;19.40;73.20
47414;DHT22;33163;0.000;0.000;2022-09-25T05:25:59;19.40;73.20
47414;DHT22;33163;0.000;0.000;2022-09-25T05:28:26;19.30;73.10
47414;DHT22;33163;0.000;0.000;2022-09-25T05:30:53;19.30;73.20
47414;DHT22;33163;0.000;0.000;2022-09-25T05:33:20;19.30;73.20
47414;DHT22;33163;0.000;0.000;2022-09-25T05:35:46;19.30;73.20
47414;DHT22;33163;0.000;0.000;2022-09-25T05:38:13;19.30;73.10
47414;DHT22;33163;0.000;0.000;2022-09-25T05:40:40;19.30;73.20
47414;DHT22;33163;0.000;0.000;2022-09-25T05:43:08;19.30;73.20
47414;DHT22;33163;0.000;0.000;2022-09-25T05:45:36;19.30;73.20
47414;DHT22;33163;0.000;0.000;2022-09-25T05:48:04;19.30;73.20
47414;DHT22;33163;0.000;0.000;2022-09-25T05:50:31;19.30;73.20
47414;DHT22;33163;0.000;0.000;2022-09-25T05:52:58;19.30;73.30
47414;DHT22;33163;0.000;0.000;2022-09-25T05:55:25;19.30;73.20
47414;DHT22;33163;0.000;0.000;2022-09-25T05:57:52;19.30;73.20
47414;DHT22;33163;0.000;0.000;2022-09-25T06:00:22;19.30;73.30
47414;DHT22;33163;0.000;0.000;2022-09-25T06:02:50;19.30;73.30
47414;DHT22;33163;0.000;0.000;2022-09-25T06:05:16;19.30;73.30
47414;DHT22;33163;0.000;0.000;2022-09-25T06:07:43;19.30;73.20
47414;DHT22;33163;0.000;0.000;2022-09-25T06:10:10;19.30;73.10
47414;DHT22;33163;0.000;0.000;2022-09-25T06:12:36;19.30;73.20
47414;DHT22;33163;0.000;0.000;2022-09-25T06:15:03;19.30;73.20
47414;DHT22;33163;0.000;0.000;2022-09-25T06:17:31;19.30;73.20
47414;DHT22;33163;0.000;0.000;2022-09-25T06:19:57;19.30;73.20
47414;DHT22;33163;0.000;0.000;2022-09-25T06:22:24;19.30;73.30
47414;DHT22;33163;0.000;0.000;2022-09-25T06:24:51;19.30;73.20
47414;DHT22;33163;0.000;0.000;2022-09-25T06:27:17;19.30;73.20
47414;DHT22;33163;0.000;0.000;2022-09-25T06:29:44;19.30;73.20
47414;DHT22;33163;0.000;0.000;2022-09-25T06:32:10;19.30;72.80
47414;DHT22;33163;0.000;0.000;2022-09-25T06:34:38;19.30;72.90
47414;DHT22;33163;0.000;0.000;2022-09-25T06:37:05;19.30;73.30
47414;DHT22;33163;0.000;0.000;2022-09-25T06:39:31;19.30;73.20
47414;DHT22;33163;0.000;0.000;2022-09-25T06:41:58;19.30;73.20
47414;DHT22;33163;0.000;0.000;2022-09-25T06:44:24;19.30;73.30
47414;DHT22;33163;0.000;0.000;2022-09-25T06:46:52;19.20;73.40
47414;DHT22;33163;0.000;0.000;2022-09-25T06:49:19;19.30;73.60
47414;DHT22;33163;0.000;0.000;2022-09-25T06:51:47;19.30;73.50
47414;DHT22;33163;0.000;0.000;2022-09-25T06:54:15;19.20;73.70
47414;DHT22;33163;0.000;0.000;2022-09-25T06:56:41;19.20;73.90
47414;DHT22;33163;0.000;0.000;2022-09-25T06:59:08;19.20;74.00
47414;DHT22;33163;0.000;0.000;2022-09-25T07:01:35;19.20;74.00
47414;DHT22;33163;0.000;0.000;2022-09-25T07:04:01;19.20;73.80
47414;DHT22;33163;0.000;0.000;2022-09-25T07:06:28;19.30;73.90
47414;DHT22;33163;0.000;0.000;2022-09-25T07:08:57;19.20;73.90
47414;DHT22;33163;0.000;0.000;2022-09-25T07:11:24;19.20;73.80
47414;DHT22;33163;0.000;0.000;2022-09-25T07:13:51;19.20;73.90
47414;DHT22;33163;0.000;0.000;2022-09-25T07:16:19;19.20;73.80
47414;DHT22;33163;0.000;0.000;2022-09-25T07:18:46;19.30;73.90
47414;DHT22;33163;0.000;0.000;2022-09-25T07:21:13;19.30;73.90
47414;DHT22;33163;0.000;0.000;2022-09-25T07:23:40;19.30;73.90
47414;DHT22;33163;0.000;0.000;2022-09-25T07:26:09;19.30;73.90
47414;DHT22;33163;0.000;0.000;2022-09-25T07:28:36;19.30;73.90
47414;DHT22;33163;0.000;0.000;2022-09-25T07:31:10;19.30;73.70
47414;DHT22;33163;0.000;0.000;2022-09-25T07:33:37;19.30;73.80
47414;DHT22;33163;0.000;0.000;2022-09-25T07:36:04;19.30;73.80
47414;DHT22;33163;0.000;0.000;2022-09-25T07:38:31;19.30;74.10
47414;DHT22;33163;0.000;0.000;2022-09-25T07:40:58;19.30;73.80
47414;DHT22;33163;0.000;0.000;2022-09-25T07:43:26;19.30;73.90
47414;DHT22;33163;0.000;0.000;2022-09-25T07:45:53;19.30;73.60
47414;DHT22;33163;0.000;0.000;2022-09-25T07:48:19;19.30;73.80
47414;DHT22;33163;0.000;0.000;2022-09-25T07:50:47;19.30;74.00
47414;DHT22;33163;0.000;0.000;2022-09-25T07:53:14;19.30;73.90
47414;DHT22;33163;0.000;0.000;2022-09-25T07:55:41;19.30;74.60
47414;DHT22;33163;0.000;0.000;2022-09-25T07:58:09;19.30;73.50
47414;DHT22;33163;0.000;0.000;2022-09-25T08:00:37;19.30;73.50
47414;DHT22;33163;0.000;0.000;2022-09-25T08:03:04;19.30;73.50
47414;DHT22;33163;0.000;0.000;2022-09-25T08:05:31;19.30;73.60
47414;DHT22;33163;0.000;0.000;2022-09-25T08:07:57;19.40;73.50
47414;DHT22;33163;0.000;0.000;2022-09-25T08:10:24;19.40;73.50
47414;DHT22;33163;0.000;0.000;2022-09-25T08:12:50;19.40;74.30
47414;DHT22;33163;0.000;0.000;2022-09-25T08:15:17;19.40;73.40
47414;DHT22;33163;0.000;0.000;2022-09-25T08:17:45;19.50;72.90
47414;DHT22;33163;0.000;0.000;2022-09-25T08:20:11;19.50;72.30
47414;DHT22;33163;0.000;0.000;2022-09-25T08:22:41;19.50;72.50
47414;DHT22;33163;0.000;0.000;2022-09-25T08:25:07;19.50;72.50
47414;DHT22;33163;0.000;0.000;2022-09-25T08:27:34;19.50;72.40
47414;DHT22;33163;0.000;0.000;2022-09-25T08:30:04;19.60;72.50
47414;DHT22;33163;0.000;0.000;2022-09-25T08:32:32;19.60;72.60
47414;DHT22;33163;0.000;0.000;2022-09-25T08:34:59;19.60;72.80
47414;DHT22;33163;0.000;0.000;2022-09-25T08:37:26;19.60;73.10
47414;DHT22;33163;0.000;0.000;2022-09-25T08:39:53;19.60;73.00
47414;DHT22;33163;0.000;0.000;2022-09-25T08:42:24;19.60;73.20
47414;DHT22;33163;0.000;0.000;2022-09-25T08:44:54;19.50;73.30
47414;DHT22;33163;0.000;0.000;2022-09-25T08:47:36;19.60;73.40
47414;DHT22;33163;0.000;0.000;2022-09-25T08:50:23;19.60;73.40
47414;DHT22;33163;0.000;0.000;2022-09-25T08:52:51;19.60;73.60
47414;DHT22;33163;0.000;0.000;2022-09-25T08:55:21;19.60;73.50
47414;DHT22;33163;0.000;0.000;2022-09-25T08:57:48;19.60;73.90
47414;DHT22;33163;0.000;0.000;2022-09-25T09:00:20;19.60;74.00
47414;DHT22;33163;0.000;0.000;2022-09-25T09:02:49;19.70;73.80
47414;DHT22;33163;0.000;0.000;2022-09-25T09:05:18;19.70;73.60
47414;DHT22;33163;0.000;0.000;2022-09-25T09:07:52;19.70;73.90
47414;DHT22;33163;0.000;0.000;2022-09-25T09:10:21;19.70;73.70
47414;DHT22;33163;0.000;0.000;2022-09-25T09:12:50;19.70;73.60
47414;DHT22;33163;0.000;0.000;2022-09-25T09:15:21;19.80;73.60
47414;DHT22;33163;0.000;0.000;2022-09-25T09:17:50;19.80;73.50
47414;DHT22;33163;0.000;0.000;2022-09-25T09:20:19;19.90;73.60
47414;DHT22;33163;0.000;0.000;2022-09-25T09:22:49;19.90;73.70
47414;DHT22;33163;0.000;0.000;2022-09-25T09:25:21;19.90;73.60
47414;DHT22;33163;0.000;0.000;2022-09-25T09:29:36;20.10;74.10
47414;DHT22;33163;0.000;0.000;2022-09-25T09:32:20;20.10;73.40
47414;DHT22;33163;0.000;0.000;2022-09-25T09:34:58;20.10;73.30
47414;DHT22;33163;0.000;0.000;2022-09-25T09:37:33;20.10;73.20
47414;DHT22;33163;0.000;0.000;2022-09-25T09:40:17;20.20;73.30
47414;DHT22;33163;0.000;0.000;2022-09-25T09:42:51;20.20;73.30
47414;DHT22;33163;0.000;0.000;2022-09-25T09:45:26;20.30;73.40
47414;DHT22;33163;0.000;0.000;2022-09-25T09:48:00;20.30;73.30
47414;DHT22;33163;0.000;0.000;2022-09-25T09:50:36;20.40;73.10
47414;DHT22;33163;0.000;0.000;2022-09-25T09:53:11;20.40;73.10
47414;DHT22;33163;0.000;0.000;2022-09-25T09:55:42;20.40;73.10
47414;DHT22;33163;0.000;0.000;2022-09-25T09:58:17;20.30;73.10
47414;DHT22;33163;0.000;0.000;2022-09-25T10:00:47;20.30;73.20
47414;DHT22;33163;0.000;0.000;2022-09-25T10:03:17;20.30;73.20
47414;DHT22;33163;0.000;0.000;2022-09-25T10:05:49;20.20;73.10
47414;DHT22;33163;0.000;0.000;2022-09-25T10:08:18;20.20;73.80
47414;DHT22;33163;0.000;0.000;2022-09-25T10:10:47;20.20;73.20
47414;DHT22;33163;0.000;0.000;2022-09-25T10:13:18;20.20;73.30
47414;DHT22;33163;0.000;0.000;2022-09-25T10:15:49;20.10;73.40
47414;DHT22;33163;0.000;0.000;2022-09-25T10:18:17;20.10;73.50
47414;DHT22;33163;0.000;0.000;2022-09-25T10:20:49;20.10;73.60
47414;DHT22;33163;0.000;0.000;2022-09-25T10:23:29;20.10;73.70
47414;DHT22;33163;0.000;0.000;2022-09-25T10:25:57;20.10;73.60
47414;DHT22;33163;0.000;0.000;2022-09-25T10:28:27;20.10;73.50
47414;DHT22;33163;0.000;0.000;2022-09-25T10:30:57;20.10;73.40
47414;DHT22;33163;0.000;0.000;2022-09-25T10:33:25;20.20;73.50
47414;DHT22;33163;0.000;0.000;2022-09-25T10:35:53;20.20;73.50
47414;DHT22;33163;0.000;0.000;2022-09-25T10:38:29;20.10;73.30
47414;DHT22;33163;0.000;0.000;2022-09-25T10:41:00;20.00;73.50
47414;DHT22;33163;0.000;0.000;2022-09-25T10:43:28;20.00;73.60
47414;DHT22;33163;0.000;0.000;2022-09-25T10:46:10;20.00;73.70
47414;DHT22;33163;0.000;0.000;2022-09-25T10:48:38;20.10;73.90
47414;DHT22;33163;0.000;0.000;2022-09-25T10:51:31;20.10;73.90
47414;DHT22;33163;0.000;0.000;2022-09-25T10:54:10;20.20;73.30
47414;DHT22;33163;0.000;0.000;2022-09-25T10:56:38;20.20;73.90
47414;DHT22;33163;0.000;0.000;2022-09-25T10:59:12;20.20;73.80
47414;DHT22;33163;0.000;0.000;2022-09-25T11:01:43;20.30;73.90
47414;DHT22;33163;0.000;0.000;2022-09-25T11:04:14;20.30;74.00
47414;DHT22;33163;0.000;0.000;2022-09-25T11:06:44;20.30;73.90
47414;DHT22;33163;0.000;0.000;2022-09-25T11:09:13;20.30;73.60
47414;DHT22;33163;0.000;0.000;2022-09-25T11:11:42;20.30;73.80
47414;DHT22;33163;0.000;0.000;2022-09-25T11:14:18;20.30;74.20
47414;DHT22;33163;0.000;0.000;2022-09-25T11:16:51;20.30;74.10
47414;DHT22;33163;0.000;0.000;2022-09-25T11:19:24;20.30;73.70
47414;DHT22;33163;0.000;0.000;2022-09-25T11:22:09;20.20;73.20
47414;DHT22;33163;0.000;0.000;2022-09-25T11:25:01;20.10;73.00
47414;DHT22;33163;0.000;0.000;2022-09-25T11:27:35;20.10;72.40
47414;DHT22;33163;0.000;0.000;2022-09-25T11:30:04;20.10;72.70
47414;DHT22;33163;0.000;0.000;2022-09-25T11:32:38;20.10;72.60
47414;DHT22;33163;0.000;0.000;2022-09-25T11:35:42;20.10;72.40
47414;DHT22;33163;0.000;0.000;2022-09-25T11:38:19;20.10;72.40
47414;DHT22;33163;0.000;0.000;2022-09-25T11:41:15;20.10;72.10
47414;DHT22;33163;0.000;0.000;2022-09-25T11:43:54;20.10;71.90
47414;DHT22;33163;0.000;0.000;2022-09-25T11:46:30;20.10;71.90
47414;DHT22;33163;0.000;0.000;2022-09-25T11:49:09;20.10;70.40
47414;DHT22;33163;0.000;0.000;2022-09-25T11:54:52;20.10;71.00
47414;DHT22;33163;0.000;0.000;2022-09-25T11:57:28;20.00;68.60
47414;DHT22;33163;0.000;0.000;2022-09-25T12:00:06;20.00;68.20
47414;DHT22;33163;0.000;0.000;2022-09-25T12:02:46;20.00;67.40
47414;DHT22;33163;0.000;0.000;2022-09-25T12:05:35;19.90;67.10
47414;DHT22;33163;0.000;0.000;2022-09-25T12:08:16;19.90;66.80
47414;DHT22;33163;0.000;0.000;2022-09-25T12:10:51;19.90;66.80
47414;DHT22;33163;0.000;0.000;2022-09-25T12:13:30;19.90;67.30
47414;DHT22;33163;0.000;0.000;2022-09-25T12:16:09;19.90;66.70
47414;DHT22;33163;0.000;0.000;2022-09-25T12:18:56;20.00;67.70
47414;DHT22;33163;0.000;0.000;2022-09-25T12:21:31;20.00;68.00
47414;DHT22;33163;0.000;0.000;2022-09-25T12:24:03;20.00;68.80
47414;DHT22;33163;0.000;0.000;2022-09-25T12:26:39;20.00;69.00
47414;DHT22;33163;0.000;0.000;2022-09-25T12:29:19;20.10;69.20
47414;DHT22;33163;0.000;0.000;2022-09-25T12:31:58;20.10;69.10
47414;DHT22;33163;0.000;0.000;2022-09-25T12:34:42;20.10;68.90
47414;DHT22;33163;0.000;0.000;2022-09-25T12:37:17;20.10;68.60
47414;DHT22;33163;0.000;0.000;2022-09-25T12:39:50;20.10;68.80
47414;DHT22;33163;0.000;0.000;2022-09-25T12:42:23;20.10;68.60
47414;DHT22;33163;0.000;0.000;2022-09-25T12:44:56;20.10;68.70
47414;DHT22;33163;0.000;0.000;2022-09-25T12:47:30;20.10;68.60
47414;DHT22;33163;0.000;0.000;2022-09-25T12:50:02;20.10;68.60
47414;DHT22;33163;0.000;0.000;2022-09-25T12:52:38;20.10;68.60
47414;DHT22;33163;0.000;0.000;2022-09-25T12:55:11;20.10;68.60
47414;DHT22;33163;0.000;0.000;2022-09-25T12:57:44;20.10;68.60
47414;DHT22;33163;0.000;0.000;2022-09-25T13:00:17;20.10;67.90
47414;DHT22;33163;0.000;0.000;2022-09-25T13:02:51;20.10;67.90
47414;DHT22;33163;0.000;0.000;2022-09-25T13:05:22;20.20;67.60
47414;DHT22;33163;0.000;0.000;2022-09-25T13:07:56;20.20;67.80
47414;DHT22;33163;0.000;0.000;2022-09-25T13:10:32;20.20;68.00
47414;DHT22;33163;0.000;0.000;2022-09-25T13:13:02;20.20;67.80
47414;DHT22;33163;0.000;0.000;2022-09-25T13:15:32;20.20;67.90
47414;DHT22;33163;0.000;0.000;2022-09-25T13:18:02;20.20;67.90
47414;DHT22;33163;0.000;0.000;2022-09-25T13:20:48;20.20;68.10
47414;DHT22;33163;0.000;0.000;2022-09-25T13:23:26;20.20;68.20
47414;DHT22;33163;0.000;0.000;2022-09-25T13:25:55;20.20;68.30
47414;DHT22;33163;0.000;0.000;2022-09-25T13:28:27;20.20;68.40
47414;DHT22;33163;0.000;0.000;2022-09-25T13:30:59;20.20;68.90
47414;DHT22;33163;0.000;0.000;2022-09-25T13:33:27;20.20;68.90
47414;DHT22;33163;0.000;0.000;2022-09-25T13:36:09;20.20;68.90
47414;DHT22;33163;0.000;0.000;2022-09-25T13:38:44;20.20;69.00
47414;DHT22;33163;0.000;0.000;2022-09-25T13:41:28;20.20;69.30
47414;DHT22;33163;0.000;0.000;2022-09-25T13:50:15;20.30;69.80
47414;DHT22;33163;0.000;0.000;2022-09-25T14:01:45;20.20;70.90
47414;DHT22;33163;0.000;0.000;2022-09-25T14:04:19;20.30;71.00
47414;DHT22;33163;0.000;0.000;2022-09-25T14:06:49;20.30;71.70
47414;DHT22;33163;0.000;0.000;2022-09-25T14:09:21;20.30;71.40
47414;DHT22;33163;0.000;0.000;2022-09-25T14:11:53;20.30;71.00
47414;DHT22;33163;0.000;0.000;2022-09-25T14:14:30;20.30;70.90
47414;DHT22;33163;0.000;0.000;2022-09-25T14:16:57;20.30;70.90
47414;DHT22;33163;0.000;0.000;2022-09-25T14:19:33;20.30;70.80
47414;DHT22;33163;0.000;0.000;2022-09-25T14:22:02;20.40;71.60
47414;DHT22;33163;0.000;0.000;2022-09-25T14:24:30;20.40;70.90
47414;DHT22;33163;0.000;0.000;2022-09-25T14:26:58;20.40;71.00
47414;DHT22;33163;0.000;0.000;2022-09-25T14:29:29;20.40;71.00
47414;DHT22;33163;0.000;0.000;2022-09-25T14:32:09;20.40;71.10
47414;DHT22;33163;0.000;0.000;2022-09-25T14:34:50;20.40;71.10
47414;DHT22;33163;0.000;0.000;2022-09-25T14:37:37;20.40;71.10
47414;DHT22;33163;0.000;0.000;2022-09-25T14:40:16;20.40;71.10
47414;DHT22;33163;0.000;0.000;2022-09-25T14:42:59;20.40;71.10
47414;DHT22;33163;0.000;0.000;2022-09-25T14:48:24;20.40;71.10
47414;DHT22;33163;0.000;0.000;2022-09-25T14:50:54;20.40;71.20
47414;DHT22;33163;0.000;0.000;2022-09-25T14:53:28;20.40;71.30
47414;DHT22;33163;0.000;0.000;2022-09-25T14:55:56;20.30;71.30
47414;DHT22;33163;0.000;0.000;2022-09-25T14:58:28;20.30;71.40
47414;DHT22;33163;0.000;0.000;2022-09-25T15:01:08;20.30;71.40
47414;DHT22;33163;0.000;0.000;2022-09-25T15:03:40;20.30;71.50
47414;DHT22;33163;0.000;0.000;2022-09-25T15:06:07;20.30;71.80
47414;DHT22;33163;0.000;0.000;2022-09-25T15:08:37;20.30;71.60
47414;DHT22;33163;0.000;0.000;2022-09-25T15:11:11;20.30;71.80
47414;DHT22;33163;0.000;0.000;2022-09-25T15:13:39;20.30;71.70
47414;DHT22;33163;0.000;0.000;2022-09-25T15:16:12;20.30;71.80
47414;DHT22;33163;0.000;0.000;2022-09-25T15:18:58;20.30;71.70
47414;DHT22;33163;0.000;0.000;2022-09-25T15:21:28;20.30;71.80
47414;DHT22;33163;0.000;0.000;2022-09-25T15:23:57;20.30;72.10
47414;DHT22;33163;0.000;0.000;2022-09-25T15:26:27;20.30;72.20
47414;DHT22;33163;0.000;0.000;2022-09-25T15:28:54;20.30;72.30
47414;DHT22;33163;0.000;0.000;2022-09-25T15:31:22;20.30;72.30
47414;DHT22;33163;0.000;0.000;2022-09-25T15:34:01;20.30;72.40
47414;DHT22;33163;0.000;0.000;2022-09-25T15:36:28;20.30;72.50
47414;DHT22;33163;0.000;0.000;2022-09-25T15:38:58;20.30;72.60
47414;DHT22;33163;0.000;0.000;2022-09-25T15:41:26;20.30;72.80
47414;DHT22;33163;0.000;0.000;2022-09-25T15:44:11;20.30;73.00
47414;DHT22;33163;0.000;0.000;2022-09-25T15:46:41;20.30;73.20
47414;DHT22;33163;0.000;0.000;2022-09-25T15:49:13;20.30;73.40
47414;DHT22;33163;0.000;0.000;2022-09-25T15:51:45;20.30;73.60
47414;DHT22;33163;0.000;0.000;2022-09-25T15:54:34;20.30;73.90
47414;DHT22;33163;0.000;0.000;2022-09-25T15:57:04;20.40;74.30
47414;DHT22;33163;0.000;0.000;2022-09-25T15:59:34;20.40;74.90
47414;DHT22;33163;0.000;0.000;2022-09-25T16:02:11;20.40;76.00
47414;DHT22;33163;0.000;0.000;2022-09-25T16:05:00;20.40;77.30
47414;DHT22;33163;0.000;0.000;2022-09-25T16:07:30;20.50;77.80
47414;DHT22;33163;0.000;0.000;2022-09-25T16:10:00;20.40;78.30
47414;DHT22;33163;0.000;0.000;2022-09-25T16:12:30;20.50;78.60
47414;DHT22;33163;0.000;0.000;2022-09-25T16:17:52;20.50;78.60
47414;DHT22;33163;0.000;0.000;2022-09-25T16:20:29;20.50;78.70
47414;DHT22;33163;0.000;0.000;2022-09-25T16:22:58;20.50;78.90
47414;DHT22;33163;0.000;0.000;2022-09-25T16:25:27;20.50;79.10
47414;DHT22;33163;0.000;0.000;2022-09-25T16:28:01;20.50;79.30
47414;DHT22;33163;0.000;0.000;2022-09-25T16:30:28;20.50;79.50
47414;DHT22;33163;0.000;0.000;2022-09-25T16:33:03;20.50;79.80